Time;durP1;ratioP1;P1;durP2;ratioP2;P2;SDS_P1;SDS_P2;PMS_P1;PMS_P2;Temp;Humidity;BMP_temperature;BMP_pressure;BME280_temperature;BME280_humidity;BME280_pressure;Samples;Min_cycle;Max_cycle;Signal;HPM_P1;HPM_P2
2022/10/11 00:01:42;;;;;;;;;;;;;;;5.55;64.94;102132.05;1724249;82;25834;-59
2022/10/11 00:04:09;;;;;;;;;;;;;;;5.51;65.70;102134.48;1693715;83;25814;-59
2022/10/11 00:06:42;;;;;;;;;;;;;;;5.40;65.79;102130.94;1671658;85;25748;-60
2022/10/11 00:09:07;;;;;;;;;;;;;;;5.38;65.87;102127.95;1672182;84;27589;-58
2022/10/11 00:11:33;;;;;;;;;;;;;;;5.36;65.81;102124.47;1685374;83;25793;-59
2022/10/11 00:14:00;;;;;;;;;;;;;;;5.38;65.91;102123.95;1699896;84;25710;-60
2022/10/11 00:16:27;;;;;;;;;;;;;;;5.38;66.21;102124.80;1700000;84;25915;-59
2022/10/11 00:18:53;;;;;;;;;;;;;;;5.31;65.95;102115.34;1700109;83;25764;-60
2022/10/11 00:21:20;;;;;;;;;;;;;;;5.26;65.88;102117.36;1710066;83;27545;-60
2022/10/11 00:23:47;;;;;;;;;;;;;;;5.24;65.97;102123.23;1729388;82;25694;-59
2022/10/11 00:26:14;;;;;;;;;;;;;;;5.20;66.19;102129.65;1728900;82;25681;-59
2022/10/11 00:28:41;;;;;;;;;;;;;;;5.16;66.28;102127.56;1729417;82;25814;-59
2022/10/11 00:31:10;;;;;;;;;;;;;;;5.15;66.31;102128.03;1727051;83;25771;-60
2022/10/11 00:33:36;;;;;;;;;;;;;;;5.17;66.20;102126.62;1727683;82;27630;-59
2022/10/11 00:36:04;;;;;;;;;;;;;;;5.20;66.31;102121.65;1728942;83;25782;-59
2022/10/11 00:38:31;;;;;;;;;;;;;;;5.22;66.71;102123.30;1716150;83;26160;-58
2022/10/11 00:40:58;;;;;;;;;;;;;;;5.21;66.20;102124.69;1728591;82;25830;-59
2022/10/11 00:43:26;;;;;;;;;;;;;;;5.16;65.95;102120.44;1715354;83;25767;-59
2022/10/11 00:45:57;;;;;;;;;;;;;;;5.10;66.03;102118.50;1722106;83;27647;-60
2022/10/11 00:48:33;;;;;;;;;;;;;;;5.07;66.21;102115.51;1706605;82;25711;-59
2022/10/11 00:51:02;;;;;;;;;;;;;;;5.06;66.46;102109.77;1656831;86;25455;-60
2022/10/11 00:53:30;;;;;;;;;;;;;;;5.04;66.07;102108.96;1657051;86;26529;-60
2022/10/11 00:56:03;;;;;;;;;;;;;;;5.03;66.18;102107.70;1656786;85;25893;-59
2022/10/11 00:58:33;;;;;;;;;;;;;;;5.03;66.57;102105.03;1674207;83;27575;-58
2022/10/11 01:00:59;;;;;;;;;;;;;;;4.99;67.16;102104.31;1729253;82;25483;-60
2022/10/11 01:03:28;;;;;;;;;;;;;;;4.95;66.63;102097.36;1729100;83;25828;-60
2022/10/11 01:05:55;;;;;;;;;;;;;;;4.93;66.76;102095.25;1729100;83;25814;-59
2022/10/11 01:08:22;;;;;;;;;;;;;;;4.92;66.78;102090.85;1713668;83;25736;-59
2022/10/11 01:10:48;;;;;;;;;;;;;;;4.92;66.79;102091.70;1659691;86;27460;-59
2022/10/11 01:13:21;;;;;;;;;;;;;;;4.90;66.61;102088.23;1659489;85;26622;-59
2022/10/11 01:16:01;;;;;;;;;;;;;;;4.87;66.69;102079.05;1659879;86;25642;-59
2022/10/11 01:18:31;;;;;;;;;;;;;;;4.85;66.75;102084.91;1676366;83;25812;-59
2022/10/11 01:21:01;;;;;;;;;;;;;;;4.82;66.83;102077.03;1714215;82;25778;-59
2022/10/11 01:23:48;;;;;;;;;;;;;;;4.79;66.75;102075.38;1700412;82;29751;-59
2022/10/11 01:26:51;;;;;;;;;;;;;;;4.78;66.77;102080.30;1684667;83;25516;-59
2022/10/11 01:29:33;;;;;;;;;;;;;;;4.76;67.03;102076.83;1671920;85;25695;-58
2022/10/11 01:32:06;;;;;;;;;;;;;;;4.77;67.15;102082.56;1671060;85;25824;-59
2022/10/11 01:35:00;;;;;;;;;;;;;;;4.75;67.82;102080.42;1685356;83;25501;-58
2022/10/11 01:37:39;;;;;;;;;;;;;;;4.70;67.48;102080.66;1729235;82;27569;-59
2022/10/11 01:40:18;;;;;;;;;;;;;;;4.69;67.29;102077.58;1700398;82;25801;-60
2022/10/11 01:42:45;;;;;;;;;;;;;;;4.72;67.29;102081.02;1697617;82;25841;-59
2022/10/11 01:45:17;;;;;;;;;;;;;;;4.71;67.07;102073.51;1700118;83;26459;-58
2022/10/11 01:47:44;;;;;;;;;;;;;;;4.72;66.96;102073.91;1699826;83;25941;-59
2022/10/11 01:50:31;;;;;;;;;;;;;;;4.70;66.70;102073.98;1699994;84;27477;-59
2022/10/11 01:53:00;;;;;;;;;;;;;;;4.67;66.96;102075.44;1699302;83;26211;-58
2022/10/11 01:55:33;;;;;;;;;;;;;;;4.67;66.81;102074.11;1700259;84;25448;-58
2022/10/11 01:58:09;;;;;;;;;;;;;;;4.63;66.77;102071.16;1699988;83;25998;-58
2022/10/11 02:00:57;;;;;;;;;;;;;;;4.61;66.76;102072.16;1699865;84;25782;-59
2022/10/11 02:03:48;;;;;;;;;;;;;;;4.59;66.97;102075.35;1699403;84;27670;-60
2022/10/11 02:06:33;;;;;;;;;;;;;;;4.59;67.00;102072.69;1699918;84;25786;-58
2022/10/11 02:09:12;;;;;;;;;;;;;;;4.60;67.04;102069.09;1684407;83;25738;-59
2022/10/11 02:11:39;;;;;;;;;;;;;;;4.55;66.86;102071.95;1666839;84;25796;-60
2022/10/11 02:14:12;;;;;;;;;;;;;;;4.54;67.26;102065.77;1700220;84;25684;-60
2022/10/11 02:16:45;;;;;;;;;;;;;;;4.51;67.44;102064.56;1699428;84;28356;-59
2022/10/11 02:19:14;;;;;;;;;;;;;;;4.49;67.24;102065.08;1679785;83;25920;-60
2022/10/11 02:21:43;;;;;;;;;;;;;;;4.48;67.30;102062.49;1659668;86;25876;-60
2022/10/11 02:24:19;;;;;;;;;;;;;;;4.45;67.34;102064.83;1669480;83;25950;-59
2022/10/11 02:26:51;;;;;;;;;;;;;;;4.43;67.95;102061.35;1728701;82;25728;-60
2022/10/11 02:29:17;;;;;;;;;;;;;;;4.41;68.09;102058.36;1711408;82;27560;-60
2022/10/11 02:31:45;;;;;;;;;;;;;;;4.37;67.69;102061.62;1695557;84;25675;-60
2022/10/11 02:34:27;;;;;;;;;;;;;;;4.33;67.92;102059.55;1695468;84;25742;-59
2022/10/11 02:36:57;;;;;;;;;;;;;;;4.30;67.74;102058.34;1695169;84;26484;-59
2022/10/11 02:39:26;;;;;;;;;;;;;;;4.28;67.68;102060.19;1696530;83;26001;-58
2022/10/11 02:41:55;;;;;;;;;;;;;;;4.25;67.89;102071.44;1684204;83;27748;-59
2022/10/11 02:44:34;;;;;;;;;;;;;;;4.21;67.78;102068.04;1692303;84;25798;-59
2022/10/11 02:47:02;;;;;;;;;;;;;;;4.18;67.96;102061.49;1699861;83;25431;-59
2022/10/11 02:49:30;;;;;;;;;;;;;;;4.18;67.72;102061.05;1706624;82;25948;-59
2022/10/11 02:51:58;;;;;;;;;;;;;;;4.15;67.68;102058.50;1708033;84;25633;-59
2022/10/11 02:54:25;;;;;;;;;;;;;;;4.11;67.75;102052.91;1707631;83;27474;-59
2022/10/11 02:56:52;;;;;;;;;;;;;;;4.07;67.90;102056.17;1707547;83;25955;-59
2022/10/11 02:59:18;;;;;;;;;;;;;;;4.11;68.07;102060.02;1720830;82;25731;-59
2022/10/11 03:01:46;;;;;;;;;;;;;;;4.13;68.01;102060.83;1737321;82;25779;-60
2022/10/11 03:04:12;;;;;;;;;;;;;;;4.14;68.03;102059.91;1737363;82;25483;-60
2022/10/11 03:06:38;;;;;;;;;;;;;;;4.17;68.10;102061.13;1737173;82;27465;-60
2022/10/11 03:09:05;;;;;;;;;;;;;;;4.20;68.22;102055.20;1722963;82;25865;-59
2022/10/11 03:11:32;;;;;;;;;;;;;;;4.23;68.38;102056.86;1707888;83;25729;-59
2022/10/11 03:13:58;;;;;;;;;;;;;;;4.26;68.33;102051.39;1707693;82;25816;-59
2022/10/11 03:16:25;;;;;;;;;;;;;;;4.29;68.45;102061.93;1737358;82;25716;-59
2022/10/11 03:18:52;;;;;;;;;;;;;;;4.31;68.37;102056.08;1735469;82;27443;-59
2022/10/11 03:21:18;;;;;;;;;;;;;;;4.32;68.54;102051.59;1737001;82;27279;-60
2022/10/11 03:23:45;;;;;;;;;;;;;;;4.32;68.65;102054.27;1736923;82;25713;-59
2022/10/11 03:26:11;;;;;;;;;;;;;;;4.30;68.53;102050.34;1737443;82;26554;-59
2022/10/11 03:28:37;;;;;;;;;;;;;;;4.30;68.56;102054.82;1735371;82;25742;-60
2022/10/11 03:31:04;;;;;;;;;;;;;;;4.30;68.61;102049.02;1737123;82;27485;-60
2022/10/11 03:33:30;;;;;;;;;;;;;;;4.32;68.78;102048.49;1737193;82;25480;-59
2022/10/11 03:35:56;;;;;;;;;;;;;;;4.35;68.64;102051.00;1737404;81;25612;-60
2022/10/11 03:38:23;;;;;;;;;;;;;;;4.35;68.72;102044.34;1726387;82;25846;-60
2022/10/11 03:40:50;;;;;;;;;;;;;;;4.34;68.56;102039.98;1673720;83;25861;-58
2022/10/11 03:43:17;;;;;;;;;;;;;;;4.34;68.37;102044.42;1704756;83;27656;-58
2022/10/11 03:45:44;;;;;;;;;;;;;;;4.31;68.29;102041.42;1697585;83;25757;-58
2022/10/11 03:48:10;;;;;;;;;;;;;;;4.29;68.17;102040.61;1693219;83;25894;-61
2022/10/11 03:50:38;;;;;;;;;;;;;;;4.26;68.13;102038.55;1730900;83;25839;-60
2022/10/11 03:53:07;;;;;;;;;;;;;;;4.23;68.14;102039.55;1731480;83;25847;-60
2022/10/11 03:55:33;;;;;;;;;;;;;;;4.21;67.91;102035.59;1731344;83;27669;-59
2022/10/11 03:58:00;;;;;;;;;;;;;;;4.17;67.78;102031.82;1731135;82;25799;-58
2022/10/11 04:00:27;;;;;;;;;;;;;;;4.14;67.75;102027.94;1701289;84;25695;-61
2022/10/11 04:02:54;;;;;;;;;;;;;;;4.12;67.72;102023.14;1701971;84;27905;-59
2022/10/11 04:05:22;;;;;;;;;;;;;;;4.07;67.63;102026.87;1720217;83;25690;-60
2022/10/11 04:07:48;;;;;;;;;;;;;;;4.06;67.71;102028.25;1731113;83;27485;-59
2022/10/11 04:10:15;;;;;;;;;;;;;;;4.03;67.41;102034.57;1704180;83;25831;-60
2022/10/11 04:12:42;;;;;;;;;;;;;;;3.99;67.44;102034.28;1702251;84;25669;-59
2022/10/11 04:15:12;;;;;;;;;;;;;;;3.93;67.13;102031.02;1702088;84;25782;-59
2022/10/11 04:17:37;;;;;;;;;;;;;;;3.86;67.52;102027.73;1702286;84;26014;-59
2022/10/11 04:20:06;;;;;;;;;;;;;;;3.81;67.40;102029.73;1723424;83;27482;-59
2022/10/11 04:22:33;;;;;;;;;;;;;;;3.78;67.46;102026.70;1731484;83;25784;-60
2022/10/11 04:25:00;;;;;;;;;;;;;;;3.75;67.46;102032.16;1731734;83;26259;-59
2022/10/11 04:27:27;;;;;;;;;;;;;;;3.72;67.49;102037.59;1731507;82;25841;-59
2022/10/11 04:29:54;;;;;;;;;;;;;;;3.68;67.58;102041.30;1709386;83;25838;-58
2022/10/11 04:32:21;;;;;;;;;;;;;;;3.67;67.46;102032.45;1702396;84;27442;-58
2022/10/11 04:34:47;;;;;;;;;;;;;;;3.68;67.56;102033.31;1702280;84;25701;-59
2022/10/11 04:37:13;;;;;;;;;;;;;;;3.68;67.77;102032.86;1679427;83;25720;-59
2022/10/11 04:39:40;;;;;;;;;;;;;;;3.71;67.74;102036.75;1684056;85;25842;-59
2022/10/11 04:42:06;;;;;;;;;;;;;;;3.76;67.77;102037.89;1687397;84;25886;-60
2022/10/11 04:44:33;;;;;;;;;;;;;;;3.76;67.73;102032.09;1699366;84;27497;-59
2022/10/11 04:47:00;;;;;;;;;;;;;;;3.80;67.73;102029.32;1721716;83;25765;-59
2022/10/11 04:49:27;;;;;;;;;;;;;;;3.83;67.76;102031.84;1736130;82;25771;-60
2022/10/11 04:51:53;;;;;;;;;;;;;;;3.87;67.83;102033.47;1731607;82;25817;-60
2022/10/11 04:54:19;;;;;;;;;;;;;;;3.88;67.75;102035.20;1679247;84;25808;-60
2022/10/11 04:56:46;;;;;;;;;;;;;;;3.90;67.80;102039.98;1679464;85;27489;-60
2022/10/11 04:59:12;;;;;;;;;;;;;;;3.91;67.83;102033.28;1679168;85;25798;-59
2022/10/11 05:01:39;;;;;;;;;;;;;;;3.97;67.72;102033.95;1679268;85;25683;-59
2022/10/11 05:04:06;;;;;;;;;;;;;;;3.99;67.66;102036.94;1731663;82;26018;-60
2022/10/11 05:06:32;;;;;;;;;;;;;;;4.03;67.80;102030.58;1737295;82;25990;-59
2022/10/11 05:08:59;;;;;;;;;;;;;;;4.05;67.66;102027.39;1737333;82;27936;-59
2022/10/11 05:11:26;;;;;;;;;;;;;;;4.11;67.58;102038.27;1737107;82;27281;-59
2022/10/11 05:13:52;;;;;;;;;;;;;;;4.16;67.66;102031.42;1735538;82;25780;-59
2022/10/11 05:16:19;;;;;;;;;;;;;;;4.16;67.49;102031.42;1737099;82;25793;-59
2022/10/11 05:18:45;;;;;;;;;;;;;;;4.17;67.34;102043.33;1737606;82;25956;-59
2022/10/11 05:21:21;;;;;;;;;;;;;;;4.27;67.73;102042.95;1737400;82;27516;-59
2022/10/11 05:23:49;;;;;;;;;;;;;;;4.38;67.64;102039.38;1691001;82;25754;-58
2022/10/11 05:26:17;;;;;;;;;;;;;;;4.50;67.53;102033.51;1679423;85;25785;-59
2022/10/11 05:28:44;;;;;;;;;;;;;;;4.61;67.44;102041.06;1679519;84;25771;-59
2022/10/11 05:31:10;;;;;;;;;;;;;;;4.78;67.49;102034.13;1679343;84;25703;-60
2022/10/11 05:33:37;;;;;;;;;;;;;;;4.84;67.39;102036.51;1723308;82;27457;-59
2022/10/11 05:36:05;;;;;;;;;;;;;;;4.86;67.30;102034.17;1725487;83;25897;-60
2022/10/11 05:38:32;;;;;;;;;;;;;;;4.87;67.06;102037.72;1719899;83;25785;-59
2022/10/11 05:41:00;;;;;;;;;;;;;;;4.89;67.25;102033.16;1699561;84;26328;-59
2022/10/11 05:43:27;;;;;;;;;;;;;;;4.91;67.27;102035.30;1693838;83;25695;-58
2022/10/11 05:45:54;;;;;;;;;;;;;;;4.94;67.23;102036.50;1687331;83;27476;-59
2022/10/11 05:48:21;;;;;;;;;;;;;;;4.97;67.21;102036.83;1699652;84;25684;-58
2022/10/11 05:50:47;;;;;;;;;;;;;;;5.03;67.36;102039.70;1716842;83;25603;-59
2022/10/11 05:53:14;;;;;;;;;;;;;;;5.06;67.40;102034.23;1721337;83;25792;-60
2022/10/11 05:55:42;;;;;;;;;;;;;;;5.10;67.52;102042.03;1721297;83;25726;-59
2022/10/11 05:58:16;;;;;;;;;;;;;;;5.14;67.64;102040.94;1655969;83;27486;-60
2022/10/11 06:00:43;;;;;;;;;;;;;;;5.19;67.80;102039.87;1653373;83;25806;-60
2022/10/11 06:03:11;;;;;;;;;;;;;;;5.25;67.84;102047.11;1712400;82;25785;-60
2022/10/11 06:05:39;;;;;;;;;;;;;;;5.31;67.92;102042.84;1723280;83;26450;-61
2022/10/11 06:08:07;;;;;;;;;;;;;;;5.36;68.14;102042.63;1694930;82;25918;-60
2022/10/11 06:10:34;;;;;;;;;;;;;;;5.42;68.11;102045.48;1695484;84;27507;-59
2022/10/11 06:13:01;;;;;;;;;;;;;;;5.52;68.84;102049.91;1703868;83;25724;-60
2022/10/11 06:15:27;;;;;;;;;;;;;;;5.60;68.44;102047.75;1715614;83;25753;-60
2022/10/11 06:17:54;;;;;;;;;;;;;;;5.64;68.75;102042.20;1723711;83;25891;-60
2022/10/11 06:20:21;;;;;;;;;;;;;;;5.75;68.87;102048.83;1728881;82;25999;-60
2022/10/11 06:22:48;;;;;;;;;;;;;;;5.82;69.02;102051.59;1712612;83;27451;-59
2022/10/11 06:25:14;;;;;;;;;;;;;;;5.87;69.01;102055.38;1695160;83;25501;-58
2022/10/11 06:27:41;;;;;;;;;;;;;;;5.88;68.73;102044.61;1696276;83;25771;-59
2022/10/11 06:30:08;;;;;;;;;;;;;;;5.94;68.55;102048.34;1704365;83;25785;-59
2022/10/11 06:32:35;;;;;;;;;;;;;;;6.03;68.97;102047.05;1696572;83;25891;-59
2022/10/11 06:35:03;;;;;;;;;;;;;;;6.13;68.68;102048.81;1690885;83;27586;-59
2022/10/11 06:37:29;;;;;;;;;;;;;;;6.21;68.54;102049.30;1693681;84;25865;-58
2022/10/11 06:39:56;;;;;;;;;;;;;;;6.27;68.22;102052.14;1698945;84;25820;-59
2022/10/11 06:42:22;;;;;;;;;;;;;;;6.34;68.21;102045.98;1712556;83;25898;-59
2022/10/11 06:44:49;;;;;;;;;;;;;;;6.40;68.52;102041.69;1691185;83;25682;-58
2022/10/11 06:47:16;;;;;;;;;;;;;;;6.42;68.45;102040.66;1699818;84;27551;-58
2022/10/11 06:49:43;;;;;;;;;;;;;;;6.48;68.49;102044.84;1704712;84;25777;-58
2022/10/11 06:52:09;;;;;;;;;;;;;;;6.58;68.74;102053.24;1697811;82;25790;-59
2022/10/11 06:54:36;;;;;;;;;;;;;;;6.67;68.45;102047.42;1678838;85;25786;-59
2022/10/11 06:57:02;;;;;;;;;;;;;;;6.76;68.52;102046.55;1679384;84;25996;-59
2022/10/11 06:59:29;;;;;;;;;;;;;;;6.80;68.29;102050.80;1679015;85;27543;-60
2022/10/11 07:01:56;;;;;;;;;;;;;;;6.86;68.15;102049.98;1675773;82;27326;-60
2022/10/11 07:04:23;;;;;;;;;;;;;;;6.95;67.90;102050.48;1734128;82;25768;-59
2022/10/11 07:06:49;;;;;;;;;;;;;;;7.02;67.90;102047.37;1736717;82;26545;-59
2022/10/11 07:09:16;;;;;;;;;;;;;;;7.12;68.16;102054.91;1737059;82;25712;-59
2022/10/11 07:11:42;;;;;;;;;;;;;;;7.19;68.00;102049.62;1715032;82;27471;-59
2022/10/11 07:14:09;;;;;;;;;;;;;;;7.28;67.91;102046.44;1678867;85;25456;-59
2022/10/11 07:16:36;;;;;;;;;;;;;;;7.36;67.87;102046.03;1678766;84;25847;-59
2022/10/11 07:19:05;;;;;;;;;;;;;;;7.49;67.88;102039.05;1679089;85;26403;-58
2022/10/11 07:21:33;;;;;;;;;;;;;;;7.64;67.65;102041.84;1705387;82;25821;-59
2022/10/11 07:24:00;;;;;;;;;;;;;;;7.77;67.37;102042.01;1704550;82;27481;-58
2022/10/11 07:26:28;;;;;;;;;;;;;;;7.90;67.08;102038.16;1729081;82;25791;-59
2022/10/11 07:28:54;;;;;;;;;;;;;;;8.01;66.88;102041.09;1736984;82;25796;-60
2022/10/11 07:31:23;;;;;;;;;;;;;;;8.14;66.66;102040.75;1734820;82;25820;-60
2022/10/11 07:33:51;;;;;;;;;;;;;;;8.27;66.55;102034.20;1737158;82;25795;-60
2022/10/11 07:36:17;;;;;;;;;;;;;;;8.45;66.51;102036.74;1721270;82;27485;-61
2022/10/11 07:38:46;;;;;;;;;;;;;;;8.64;66.16;102033.00;1704777;82;25794;-59
2022/10/11 07:41:13;;;;;;;;;;;;;;;8.80;66.08;102024.89;1707381;84;25874;-59
2022/10/11 07:43:42;;;;;;;;;;;;;;;8.97;65.77;102027.39;1703409;83;25829;-59
2022/10/11 07:46:10;;;;;;;;;;;;;;;9.15;65.83;102026.72;1697218;84;25685;-59
2022/10/11 07:48:37;;;;;;;;;;;;;;;9.33;65.33;102015.31;1705360;82;28114;-59
2022/10/11 07:51:09;;;;;;;;;;;;;;;9.51;65.40;102013.25;1695038;83;25915;-59
2022/10/11 07:53:43;;;;;;;;;;;;;;;9.75;65.22;102019.83;1698306;83;25812;-58
2022/10/11 07:56:11;;;;;;;;;;;;;;;9.93;64.46;102023.15;1699843;84;26892;-58
2022/10/11 07:58:40;;;;;;;;;;;;;;;10.10;63.41;102012.59;1718661;83;25775;-59
2022/10/11 08:01:08;;;;;;;;;;;;;;;10.25;63.37;102011.59;1724241;83;27449;-60
2022/10/11 08:03:34;;;;;;;;;;;;;;;10.47;63.06;102011.48;1698719;83;25701;-60
2022/10/11 08:06:03;;;;;;;;;;;;;;;10.70;62.67;102010.41;1659543;86;25726;-60
2022/10/11 08:08:30;;;;;;;;;;;;;;;10.93;62.67;102000.22;1659695;85;26391;-59
2022/10/11 08:10:58;;;;;;;;;;;;;;;11.19;62.35;102002.04;1692949;83;25781;-59
2022/10/11 08:13:25;;;;;;;;;;;;;;;11.39;61.72;101999.25;1701641;83;27457;-59
2022/10/11 08:15:53;;;;;;;;;;;;;;;11.63;61.03;102003.34;1722941;83;25714;-60
2022/10/11 08:18:20;;;;;;;;;;;;;;;11.84;60.45;101994.14;1728782;83;25786;-60
2022/10/11 08:20:47;;;;;;;;;;;;;;;12.12;60.80;101992.56;1728963;83;27884;-60
2022/10/11 08:23:14;;;;;;;;;;;;;;;12.41;60.30;102001.62;1720930;82;25835;-59
2022/10/11 08:25:43;;;;;;;;;;;;;;;12.68;59.28;101992.73;1672370;84;27422;-58
2022/10/11 08:28:16;;;;;;;;;;;;;;;12.99;58.88;101992.16;1671579;85;25778;-59
2022/10/11 08:30:53;;;;;;;;;;;;;;;13.26;57.84;101990.92;1671811;84;25793;-60
2022/10/11 08:33:20;;;;;;;;;;;;;;;13.50;56.45;101995.34;1671603;83;25786;-61
2022/10/11 08:35:48;;;;;;;;;;;;;;;13.79;54.67;101991.61;1729071;83;25697;-60
2022/10/11 08:38:15;;;;;;;;;;;;;;;14.07;54.10;101993.36;1723410;83;27431;-60
2022/10/11 08:40:49;;;;;;;;;;;;;;;14.28;53.55;101989.33;1699387;83;25767;-59
2022/10/11 08:43:29;;;;;;;;;;;;;;;14.57;53.98;101984.59;1698583;83;25754;-59
2022/10/11 08:45:58;;;;;;;;;;;;;;;14.91;53.75;101983.05;1679761;83;26900;-59
2022/10/11 08:48:41;;;;;;;;;;;;;;;15.27;53.23;101977.19;1671433;85;26547;-59
2022/10/11 08:51:18;;;;;;;;;;;;;;;15.62;51.19;101971.78;1693812;82;27596;-60
2022/10/11 08:53:53;;;;;;;;;;;;;;;15.99;50.71;101970.30;1736631;82;25625;-60
2022/10/11 08:56:22;;;;;;;;;;;;;;;16.42;50.24;101963.03;1736868;82;25824;-61
2022/10/11 08:59:03;;;;;;;;;;;;;;;16.80;48.37;101964.45;1736836;82;25962;-61
2022/10/11 09:01:30;;;;;;;;;;;;;;;17.12;46.71;101961.00;1715311;82;25698;-61
2022/10/11 09:03:59;;;;;;;;;;;;;;;17.55;45.02;101959.47;1736936;82;27493;-59
2022/10/11 09:06:32;;;;;;;;;;;;;;;18.13;44.01;101958.67;1734472;82;26715;-59
2022/10/11 09:09:14;;;;;;;;;;;;;;;19.07;43.04;101952.17;1717975;82;25825;-60
2022/10/11 09:11:48;;;;;;;;;;;;;;;19.88;39.28;101944.38;1707352;84;25939;-60
2022/10/11 09:14:30;;;;;;;;;;;;;;;20.61;40.40;101949.46;1720512;81;25681;-61
2022/10/11 09:17:17;;;;;;;;;;;;;;;21.38;39.15;101941.16;1703029;82;27413;-61
2022/10/11 09:20:02;;;;;;;;;;;;;;;22.29;39.76;101932.80;1736979;82;25732;-60
2022/10/11 09:22:47;;;;;;;;;;;;;;;23.13;39.32;101939.45;1735117;82;25751;-60
2022/10/11 09:25:26;;;;;;;;;;;;;;;23.90;38.00;101928.91;1716428;82;25800;-60
2022/10/11 09:28:06;;;;;;;;;;;;;;;24.66;36.74;101927.41;1679389;84;25957;-60
2022/10/11 09:30:32;;;;;;;;;;;;;;;25.20;33.59;101923.58;1678997;85;28266;-60
2022/10/11 09:33:20;;;;;;;;;;;;;;;25.68;33.39;101920.46;1683909;82;25791;-60
2022/10/11 09:35:50;;;;;;;;;;;;;;;26.22;34.39;101920.80;1704693;84;25834;-60
2022/10/11 09:38:39;;;;;;;;;;;;;;;26.78;30.76;101915.86;1725568;82;25823;-60
2022/10/11 09:41:31;;;;;;;;;;;;;;;27.25;30.50;101918.97;1707910;83;26564;-61
2022/10/11 09:43:58;;;;;;;;;;;;;;;27.52;28.24;101910.56;1701940;83;27482;-61
2022/10/11 09:46:37;;;;;;;;;;;;;;;27.93;27.57;101907.80;1703128;82;25753;-60
2022/10/11 09:49:07;;;;;;;;;;;;;;;28.48;28.33;101909.03;1702784;83;25737;-60
2022/10/11 09:51:33;;;;;;;;;;;;;;;28.95;25.40;101903.02;1683643;82;25752;-60
2022/10/11 09:54:04;;;;;;;;;;;;;;;29.60;28.22;101898.70;1683643;82;25759;-60
2022/10/11 09:56:33;;;;;;;;;;;;;;;29.85;26.23;101892.15;1737040;82;27443;-60
2022/10/11 09:59:09;;;;;;;;;;;;;;;30.16;25.20;101893.77;1712488;82;25431;-61
2022/10/11 10:01:35;;;;;;;;;;;;;;;30.55;24.66;101894.68;1679091;85;25769;-61
2022/10/11 10:04:06;;;;;;;;;;;;;;;30.95;22.96;101892.45;1679147;85;25864;-60
2022/10/11 10:06:32;;;;;;;;;;;;;;;31.21;23.79;101882.73;1684754;82;25715;-60
2022/10/11 10:09:22;;;;;;;;;;;;;;;31.35;22.76;101893.53;1707559;84;29678;-59
2022/10/11 10:11:48;;;;;;;;;;;;;;;31.36;22.61;101893.30;1704580;83;27225;-59
2022/10/11 10:14:29;;;;;;;;;;;;;;;31.71;23.63;101887.81;1707552;83;25745;-60
2022/10/11 10:17:01;;;;;;;;;;;;;;;31.97;22.16;101887.67;1699953;82;26599;-61
2022/10/11 10:19:32;;;;;;;;;;;;;;;32.04;18.41;101880.02;1702257;84;25712;-60
2022/10/11 10:21:58;;;;;;;;;;;;;;;31.65;18.13;101879.89;1707832;83;27605;-61
2022/10/11 10:24:34;;;;;;;;;;;;;;;31.66;20.20;101878.80;1717478;82;25927;-61
2022/10/11 10:27:07;;;;;;;;;;;;;;;31.80;20.34;101865.44;1707224;81;25781;-61
2022/10/11 10:29:34;;;;;;;;;;;;;;;32.16;20.03;101867.37;1707574;84;25841;-61
2022/10/11 10:32:12;;;;;;;;;;;;;;;32.46;20.32;101866.14;1707562;83;25743;-60
2022/10/11 10:34:58;;;;;;;;;;;;;;;32.66;19.52;101860.02;1705424;82;27463;-60
2022/10/11 10:37:28;;;;;;;;;;;;;;;32.71;18.66;101848.92;1677965;85;25730;-61
2022/10/11 10:40:00;;;;;;;;;;;;;;;32.72;18.34;101848.39;1695634;82;25810;-59
2022/10/11 10:42:27;;;;;;;;;;;;;;;33.12;19.44;101854.72;1706752;83;25822;-60
2022/10/11 10:44:56;;;;;;;;;;;;;;;33.42;17.86;101853.34;1695506;84;25862;-59
2022/10/11 10:47:58;;;;;;;;;;;;;;;33.34;18.00;101849.94;1694986;84;27531;-60
2022/10/11 10:50:44;;;;;;;;;;;;;;;33.50;17.76;101847.28;1687554;83;25743;-60
2022/10/11 10:53:35;;;;;;;;;;;;;;;33.60;17.73;101843.19;1645080;86;25775;-61
2022/10/11 10:56:05;;;;;;;;;;;;;;;33.57;17.45;101837.30;1692690;84;25845;-60
2022/10/11 10:59:02;;;;;;;;;;;;;;;33.63;17.80;101832.90;1701529;83;25777;-60
2022/10/11 11:01:33;;;;;;;;;;;;;;;33.76;18.45;101827.42;1679391;84;27494;-60
2022/10/11 11:04:12;;;;;;;;;;;;;;;33.72;17.72;101826.25;1672204;83;25485;-60
2022/10/11 11:06:51;;;;;;;;;;;;;;;33.52;17.74;101823.62;1670596;85;25806;-60
2022/10/11 11:09:33;;;;;;;;;;;;;;;33.51;17.36;101816.36;1678435;83;27182;-59
2022/10/11 11:12:20;;;;;;;;;;;;;;;33.50;17.44;101826.36;1698627;84;25770;-60
2022/10/11 11:14:54;;;;;;;;;;;;;;;33.37;17.58;101813.70;1670064;85;28618;-60
2022/10/11 11:17:30;;;;;;;;;;;;;;;32.96;17.37;101809.94;1667836;85;25803;-60
2022/10/11 11:20:27;;;;;;;;;;;;;;;32.66;17.02;101815.45;1670330;85;25703;-59
2022/10/11 11:23:07;;;;;;;;;;;;;;;32.19;17.45;101820.92;1676985;83;25782;-59
2022/10/11 11:25:49;;;;;;;;;;;;;;;31.83;18.04;101812.91;1713180;83;25773;-60
2022/10/11 11:28:34;;;;;;;;;;;;;;;31.71;18.28;101809.37;1717468;83;27395;-61
2022/10/11 11:31:29;;;;;;;;;;;;;;;31.61;18.23;101810.03;1722189;83;26328;-59
2022/10/11 11:34:14;;;;;;;;;;;;;;;31.43;18.32;101813.88;1728378;82;25716;-59
2022/10/11 11:36:59;;;;;;;;;;;;;;;31.19;18.05;101814.04;1724142;83;25949;-59
2022/10/11 11:39:32;;;;;;;;;;;;;;;30.83;17.99;101807.77;1709049;83;25901;-60
2022/10/11 11:42:20;;;;;;;;;;;;;;;30.39;18.76;101809.62;1728598;82;27497;-59
2022/10/11 11:44:48;;;;;;;;;;;;;;;29.89;18.96;101809.61;1702224;83;25787;-62
2022/10/11 11:47:24;;;;;;;;;;;;;;;29.41;19.61;101807.31;1699685;83;25703;-60
2022/10/11 11:50:13;;;;;;;;;;;;;;;29.09;19.48;101799.25;1716163;83;25847;-60
2022/10/11 11:52:42;;;;;;;;;;;;;;;28.77;19.22;101798.12;1728713;82;25946;-59
2022/10/11 11:55:29;;;;;;;;;;;;;;;28.41;19.65;101799.82;1728889;83;27578;-60
2022/10/11 11:58:17;;;;;;;;;;;;;;;28.19;19.87;101800.27;1728928;83;25812;-60
2022/10/11 12:01:06;;;;;;;;;;;;;;;28.20;20.50;101785.88;1661443;82;25778;-60
2022/10/11 12:03:38;;;;;;;;;;;;;;;28.31;19.74;101790.66;1671605;86;25894;-59
2022/10/11 12:06:17;;;;;;;;;;;;;;;28.22;20.20;101783.73;1693385;83;25800;-59
2022/10/11 12:08:46;;;;;;;;;;;;;;;28.22;20.50;101784.60;1696115;84;27647;-61
2022/10/11 12:11:26;;;;;;;;;;;;;;;28.33;20.60;101785.75;1699568;84;25923;-60
2022/10/11 12:13:53;;;;;;;;;;;;;;;28.30;20.83;101788.13;1699786;84;25800;-60
2022/10/11 12:16:21;;;;;;;;;;;;;;;28.42;20.16;101794.05;1699508;84;28045;-60
2022/10/11 12:18:57;;;;;;;;;;;;;;;28.30;20.62;101795.05;1706803;83;26051;-60
2022/10/11 12:21:35;;;;;;;;;;;;;;;28.03;21.11;101785.08;1728949;82;27536;-60
2022/10/11 12:24:21;;;;;;;;;;;;;;;28.02;21.00;101787.53;1718789;83;25436;-61
2022/10/11 12:26:56;;;;;;;;;;;;;;;28.02;21.04;101779.78;1699745;83;25822;-60
2022/10/11 12:29:26;;;;;;;;;;;;;;;28.37;20.42;101784.22;1685043;83;25834;-61
2022/10/11 12:32:02;;;;;;;;;;;;;;;28.73;20.62;101776.13;1668373;85;25794;-60
2022/10/11 12:34:40;;;;;;;;;;;;;;;29.41;20.49;101771.83;1671570;86;27683;-61
2022/10/11 12:37:20;;;;;;;;;;;;;;;30.26;20.45;101769.66;1671451;85;25682;-60
2022/10/11 12:39:55;;;;;;;;;;;;;;;30.93;19.24;101770.17;1672611;83;26023;-60
2022/10/11 12:42:34;;;;;;;;;;;;;;;31.02;18.63;101771.45;1671839;85;25841;-60
2022/10/11 12:45:16;;;;;;;;;;;;;;;31.16;19.16;101760.90;1671994;85;26162;-61
2022/10/11 12:48:01;;;;;;;;;;;;;;;31.53;18.73;101764.01;1693512;84;27481;-61
2022/10/11 12:50:34;;;;;;;;;;;;;;;31.78;18.55;101764.12;1671690;85;25731;-61
2022/10/11 12:53:07;;;;;;;;;;;;;;;31.96;18.38;101762.19;1670657;85;25707;-60
2022/10/11 12:55:40;;;;;;;;;;;;;;;31.49;18.57;101755.90;1672180;84;25848;-61
2022/10/11 12:58:25;;;;;;;;;;;;;;;31.04;19.22;101762.33;1669554;84;26112;-61
2022/10/11 13:00:55;;;;;;;;;;;;;;;30.64;19.40;101760.45;1670537;83;28227;-61
2022/10/11 13:03:34;;;;;;;;;;;;;;;30.05;19.05;101766.44;1671656;85;25735;-60
2022/10/11 13:06:23;;;;;;;;;;;;;;;29.23;19.87;101762.49;1671615;85;25806;-59